sensor_id;sensor_type;location;lat;lon;timestamp;pressure;altitude;pressure_sealevel;temperature;humidity
7309;BME280;3695;53.330;9.876;2022-07-18T00:00:00;121694.66;;;15.31;51.74
7309;BME280;3695;53.330;9.876;2022-07-18T00:02:26;122811.38;;;15.62;51.74
7309;BME280;3695;53.330;9.876;2022-07-18T00:04:53;123012.38;;;15.63;51.74
7309;BME280;3695;53.330;9.876;2022-07-18T00:07:19;122831.44;;;15.57;51.75
7309;BME280;3695;53.330;9.876;2022-07-18T00:09:47;122871.66;;;15.56;51.76
7309;BME280;3695;53.330;9.876;2022-07-18T00:12:13;122628.34;;;15.49;51.77
7309;BME280;3695;53.330;9.876;2022-07-18T00:14:40;122779.09;;;15.51;51.77
7309;BME280;3695;53.330;9.876;2022-07-18T00:17:07;123150.28;;;15.61;51.78
7309;BME280;3695;53.330;9.876;2022-07-18T00:19:34;123207.69;;;15.59;51.80
7309;BME280;3695;53.330;9.876;2022-07-18T00:22:01;123347.19;;;15.60;51.80
7309;BME280;3695;53.330;9.876;2022-07-18T00:24:28;123457.16;;;15.60;51.83
7309;BME280;3695;53.330;9.876;2022-07-18T00:26:56;123326.00;;;15.55;51.85
7309;BME280;3695;53.330;9.876;2022-07-18T00:29:22;123222.38;;;15.50;51.86
7309;BME280;3695;53.330;9.876;2022-07-18T00:31:49;122945.03;;;15.42;51.89
7309;BME280;3695;53.330;9.876;2022-07-18T00:34:15;122905.25;;;15.40;51.90
7309;BME280;3695;53.330;9.876;2022-07-18T00:36:42;123008.81;;;15.45;51.89
7309;BME280;3695;53.330;9.876;2022-07-18T00:39:08;122804.56;;;15.40;51.90
7309;BME280;3695;53.330;9.876;2022-07-18T00:41:35;122329.44;;;15.27;51.91
7309;BME280;3695;53.330;9.876;2022-07-18T00:44:03;121486.03;;;15.04;51.91
7309;BME280;3695;53.330;9.876;2022-07-18T00:46:30;121548.97;;;15.08;51.89
7309;BME280;3695;53.330;9.876;2022-07-18T00:48:56;121948.28;;;15.20;51.88
7309;BME280;3695;53.330;9.876;2022-07-18T00:51:23;121987.75;;;15.21;51.88
7309;BME280;3695;53.330;9.876;2022-07-18T00:53:50;121205.75;;;14.97;51.89
7309;BME280;3695;53.330;9.876;2022-07-18T00:56:18;120878.88;;;14.90;51.88
7309;BME280;3695;53.330;9.876;2022-07-18T00:58:47;120671.34;;;14.85;51.90
7309;BME280;3695;53.330;9.876;2022-07-18T01:01:15;120628.44;;;14.86;51.89
7309;BME280;3695;53.330;9.876;2022-07-18T01:03:59;120783.59;;;14.89;51.86
7309;BME280;3695;53.330;9.876;2022-07-18T01:06:25;121029.56;;;14.94;51.88
7309;BME280;3695;53.330;9.876;2022-07-18T01:08:51;120665.63;;;14.84;51.90
7309;BME280;3695;53.330;9.876;2022-07-18T01:11:18;120270.66;;;14.72;51.90
7309;BME280;3695;53.330;9.876;2022-07-18T01:13:46;119825.69;;;14.62;51.89
7309;BME280;3695;53.330;9.876;2022-07-18T01:16:16;119995.66;;;14.68;51.89
7309;BME280;3695;53.330;9.876;2022-07-18T01:18:46;119794.75;;;14.63;51.88
7309;BME280;3695;53.330;9.876;2022-07-18T01:21:14;119645.25;;;14.60;51.89
7309;BME280;3695;53.330;9.876;2022-07-18T01:23:41;119637.81;;;14.59;51.87
7309;BME280;3695;53.330;9.876;2022-07-18T01:26:07;119693.06;;;14.62;51.87
7309;BME280;3695;53.330;9.876;2022-07-18T01:28:34;120051.97;;;14.71;51.86
7309;BME280;3695;53.330;9.876;2022-07-18T01:31:01;120779.09;;;14.90;51.86
7309;BME280;3695;53.330;9.876;2022-07-18T01:33:27;120012.13;;;14.68;51.89
7309;BME280;3695;53.330;9.876;2022-07-18T01:35:57;120123.50;;;14.73;51.87
7309;BME280;3695;53.330;9.876;2022-07-18T01:38:26;119975.72;;;14.69;51.89
7309;BME280;3695;53.330;9.876;2022-07-18T01:40:52;120245.88;;;14.78;51.87
7309;BME280;3695;53.330;9.876;2022-07-18T01:43:19;120279.25;;;14.81;51.86
7309;BME280;3695;53.330;9.876;2022-07-18T01:45:45;121165.81;;;15.05;51.86
7309;BME280;3695;53.330;9.876;2022-07-18T01:48:11;121235.69;;;15.01;51.87
7309;BME280;3695;53.330;9.876;2022-07-18T01:50:38;120978.66;;;14.96;51.89
7309;BME280;3695;53.330;9.876;2022-07-18T01:53:04;121097.94;;;14.98;51.90
7309;BME280;3695;53.330;9.876;2022-07-18T01:55:32;120610.75;;;14.84;51.92
7309;BME280;3695;53.330;9.876;2022-07-18T01:57:59;119562.56;;;14.57;51.91
7309;BME280;3695;53.330;9.876;2022-07-18T02:00:26;119265.03;;;14.53;51.90
7309;BME280;3695;53.330;9.876;2022-07-18T02:02:52;119235.09;;;14.55;51.88
7309;BME280;3695;53.330;9.876;2022-07-18T02:05:19;119802.91;;;14.69;51.87
7309;BME280;3695;53.330;9.876;2022-07-18T02:07:45;119720.94;;;14.65;51.86
7309;BME280;3695;53.330;9.876;2022-07-18T02:10:15;119665.31;;;14.66;51.86
7309;BME280;3695;53.330;9.876;2022-07-18T02:12:43;119440.38;;;14.59;51.88
7309;BME280;3695;53.330;9.876;2022-07-18T02:15:11;119334.22;;;14.58;51.86
7309;BME280;3695;53.330;9.876;2022-07-18T02:17:39;119446.28;;;14.62;51.86
7309;BME280;3695;53.330;9.876;2022-07-18T02:20:07;119728.84;;;14.69;51.86
7309;BME280;3695;53.330;9.876;2022-07-18T02:22:34;119778.22;;;14.69;51.87
7309;BME280;3695;53.330;9.876;2022-07-18T02:25:01;119268.00;;;14.55;51.87
7309;BME280;3695;53.330;9.876;2022-07-18T02:27:27;119123.47;;;14.54;51.86
7309;BME280;3695;53.330;9.876;2022-07-18T02:29:55;119320.69;;;14.59;51.87
7309;BME280;3695;53.330;9.876;2022-07-18T02:32:21;119409.63;;;14.61;51.86
7309;BME280;3695;53.330;9.876;2022-07-18T02:34:48;119672.03;;;14.68;51.85
7309;BME280;3695;53.330;9.876;2022-07-18T02:37:15;119545.41;;;14.65;51.84
7309;BME280;3695;53.330;9.876;2022-07-18T02:39:42;119029.06;;;14.52;51.86
7309;BME280;3695;53.330;9.876;2022-07-18T02:42:08;119421.22;;;14.66;51.84
7309;BME280;3695;53.330;9.876;2022-07-18T02:44:35;120385.88;;;14.91;51.84
7309;BME280;3695;53.330;9.876;2022-07-18T02:47:03;120616.66;;;14.92;51.85
7309;BME280;3695;53.330;9.876;2022-07-18T02:49:31;120343.59;;;14.83;51.88
7309;BME280;3695;53.330;9.876;2022-07-18T02:51:59;120815.47;;;14.94;51.90
7309;BME280;3695;53.330;9.876;2022-07-18T02:54:29;120172.13;;;14.74;51.93
7309;BME280;3695;53.330;9.876;2022-07-18T02:56:56;118812.50;;;14.37;51.95
7309;BME280;3695;53.330;9.876;2022-07-18T02:59:23;119428.63;;;14.60;51.93
7309;BME280;3695;53.330;9.876;2022-07-18T03:01:50;118460.00;;;14.31;51.96
7309;BME280;3695;53.330;9.876;2022-07-18T03:04:19;118238.84;;;14.30;51.92
7309;BME280;3695;53.330;9.876;2022-07-18T03:06:47;117683.09;;;14.17;51.91
7309;BME280;3695;53.330;9.876;2022-07-18T03:09:14;117472.69;;;14.13;51.89
7309;BME280;3695;53.330;9.876;2022-07-18T03:11:41;117120.44;;;14.05;51.87
7309;BME280;3695;53.330;9.876;2022-07-18T03:14:08;117801.75;;;14.25;51.86
7309;BME280;3695;53.330;9.876;2022-07-18T03:16:35;117314.50;;;14.10;51.86
7309;BME280;3695;53.330;9.876;2022-07-18T03:19:01;117060.19;;;14.05;51.85
7309;BME280;3695;53.330;9.876;2022-07-18T03:21:29;117193.84;;;14.09;51.85
7309;BME280;3695;53.330;9.876;2022-07-18T03:23:56;117227.69;;;14.09;51.85
7309;BME280;3695;53.330;9.876;2022-07-18T03:26:22;117266.16;;;14.11;51.84
7309;BME280;3695;53.330;9.876;2022-07-18T03:28:49;117226.41;;;14.06;51.85
7309;BME280;3695;53.330;9.876;2022-07-18T03:31:16;117752.09;;;14.22;51.86
7309;BME280;3695;53.330;9.876;2022-07-18T03:33:43;118207.28;;;14.33;51.87
7309;BME280;3695;53.330;9.876;2022-07-18T03:36:09;118774.94;;;14.43;51.90
7309;BME280;3695;53.330;9.876;2022-07-18T03:38:37;119188.50;;;14.55;51.90
7309;BME280;3695;53.330;9.876;2022-07-18T03:41:08;119150.28;;;14.49;51.94
7309;BME280;3695;53.330;9.876;2022-07-18T03:43:35;119215.09;;;14.48;52.00
7309;BME280;3695;53.330;9.876;2022-07-18T03:46:01;119790.81;;;14.61;52.02
7309;BME280;3695;53.330;9.876;2022-07-18T03:48:28;120446.16;;;14.78;52.07
7309;BME280;3695;53.330;9.876;2022-07-18T03:50:54;120377.41;;;14.71;52.15
7309;BME280;3695;53.330;9.876;2022-07-18T03:53:21;121163.31;;;14.90;52.26
7309;BME280;3695;53.330;9.876;2022-07-18T03:55:48;120869.22;;;14.75;52.44
7309;BME280;3695;53.330;9.876;2022-07-18T03:58:15;121475.75;;;14.92;52.59
7309;BME280;3695;53.330;9.876;2022-07-18T04:00:42;121101.97;;;14.78;52.81
7309;BME280;3695;53.330;9.876;2022-07-18T04:03:09;121421.84;;;14.87;52.96
7309;BME280;3695;53.330;9.876;2022-07-18T04:05:36;121725.84;;;14.94;53.16
7309;BME280;3695;53.330;9.876;2022-07-18T04:08:03;121766.00;;;14.93;53.41
7309;BME280;3695;53.330;9.876;2022-07-18T04:10:30;121766.22;;;14.89;53.81
7309;BME280;3695;53.330;9.876;2022-07-18T04:12:58;120700.44;;;14.61;54.07
7309;BME280;3695;53.330;9.876;2022-07-18T04:15:25;120570.75;;;14.62;53.92
7309;BME280;3695;53.330;9.876;2022-07-18T04:17:52;120424.91;;;14.59;53.83
7309;BME280;3695;53.330;9.876;2022-07-18T04:20:21;120176.63;;;14.55;53.77
7309;BME280;3695;53.330;9.876;2022-07-18T04:22:50;120752.53;;;14.72;53.70
7309;BME280;3695;53.330;9.876;2022-07-18T04:25:18;121314.53;;;14.91;53.62
7309;BME280;3695;53.330;9.876;2022-07-18T04:27:45;121507.97;;;14.93;53.80
7309;BME280;3695;53.330;9.876;2022-07-18T04:30:13;121411.38;;;14.90;53.98
7309;BME280;3695;53.330;9.876;2022-07-18T04:32:40;121015.63;;;14.82;53.95
7309;BME280;3695;53.330;9.876;2022-07-18T04:35:08;120656.50;;;14.72;53.97
7309;BME280;3695;53.330;9.876;2022-07-18T04:37:36;120933.56;;;14.83;53.85
7309;BME280;3695;53.330;9.876;2022-07-18T04:40:04;120426.34;;;14.68;53.88
7309;BME280;3695;53.330;9.876;2022-07-18T04:42:30;121083.50;;;14.88;53.75
7309;BME280;3695;53.330;9.876;2022-07-18T04:44:57;120356.75;;;14.67;53.91
7309;BME280;3695;53.330;9.876;2022-07-18T04:47:25;120874.41;;;14.85;53.74
7309;BME280;3695;53.330;9.876;2022-07-18T04:49:52;121412.16;;;15.00;53.77
7309;BME280;3695;53.330;9.876;2022-07-18T04:52:19;121528.97;;;15.04;53.76
7309;BME280;3695;53.330;9.876;2022-07-18T04:54:45;121838.81;;;15.12;53.88
7309;BME280;3695;53.330;9.876;2022-07-18T04:57:12;122218.00;;;15.23;53.91
7309;BME280;3695;53.330;9.876;2022-07-18T04:59:40;122836.69;;;15.36;54.21
7309;BME280;3695;53.330;9.876;2022-07-18T05:02:07;122990.47;;;15.40;54.49
7309;BME280;3695;53.330;9.876;2022-07-18T05:04:35;123476.00;;;15.49;54.98
7309;BME280;3695;53.330;9.876;2022-07-18T05:07:01;124453.50;;;15.77;55.18
7309;BME280;3695;53.330;9.876;2022-07-18T05:09:28;124463.50;;;15.77;55.77
7309;BME280;3695;53.330;9.876;2022-07-18T05:11:54;124844.13;;;15.85;56.26
7309;BME280;3695;53.330;9.876;2022-07-18T05:14:21;125675.41;;;16.10;56.23
7309;BME280;3695;53.330;9.876;2022-07-18T05:16:48;125773.50;;;16.09;56.94
7309;BME280;3695;53.330;9.876;2022-07-18T05:19:14;125590.34;;;16.03;57.18
7309;BME280;3695;53.330;9.876;2022-07-18T05:21:43;126175.31;;;16.20;57.45
7309;BME280;3695;53.330;9.876;2022-07-18T05:24:10;125762.47;;;16.09;58.00
7309;BME280;3695;53.330;9.876;2022-07-18T05:26:37;126373.31;;;16.22;58.45
7309;BME280;3695;53.330;9.876;2022-07-18T05:29:03;127048.00;;;16.40;59.39
7309;BME280;3695;53.330;9.876;2022-07-18T05:31:30;127576.78;;;16.49;60.70
7309;BME280;3695;53.330;9.876;2022-07-18T05:33:56;128004.44;;;16.57;63.04
7309;BME280;3695;53.330;9.876;2022-07-18T05:36:23;127887.81;;;16.54;64.51
7309;BME280;3695;53.330;9.876;2022-07-18T05:38:51;127384.63;;;16.41;63.06
7309;BME280;3695;53.330;9.876;2022-07-18T05:41:17;127552.75;;;16.52;61.57
7309;BME280;3695;53.330;9.876;2022-07-18T05:43:44;127265.28;;;16.49;60.62
7309;BME280;3695;53.330;9.876;2022-07-18T05:46:10;127690.25;;;16.61;59.71
7309;BME280;3695;53.330;9.876;2022-07-18T05:48:37;127695.09;;;16.62;59.65
7309;BME280;3695;53.330;9.876;2022-07-18T05:51:05;128188.59;;;16.75;60.11
7309;BME280;3695;53.330;9.876;2022-07-18T05:53:32;128813.50;;;16.90;61.78
7309;BME280;3695;53.330;9.876;2022-07-18T05:56:00;129067.81;;;16.98;62.32
7309;BME280;3695;53.330;9.876;2022-07-18T05:58:26;130071.84;;;17.27;62.26
7309;BME280;3695;53.330;9.876;2022-07-18T06:00:53;130581.94;;;17.33;65.04
7309;BME280;3695;53.330;9.876;2022-07-18T06:03:19;131292.16;;;17.54;67.13
7309;BME280;3695;53.330;9.876;2022-07-18T06:05:46;131729.66;;;17.62;68.43
7309;BME280;3695;53.330;9.876;2022-07-18T06:08:12;132628.75;;;17.88;68.17
7309;BME280;3695;53.330;9.876;2022-07-18T06:10:39;133298.03;;;18.06;72.14
7309;BME280;3695;53.330;9.876;2022-07-18T06:13:07;134202.59;;;18.27;76.49
7309;BME280;3695;53.330;9.876;2022-07-18T06:15:34;135256.00;;;18.49;87.48
7309;BME280;3695;53.330;9.876;2022-07-18T06:18:00;135410.66;;;18.50;95.11
7309;BME280;3695;53.330;9.876;2022-07-18T06:20:27;136172.78;;;18.66;100.00
7309;BME280;3695;53.330;9.876;2022-07-18T06:22:53;136756.16;;;18.80;100.00
7309;BME280;3695;53.330;9.876;2022-07-18T06:25:20;136694.44;;;18.76;100.00
7309;BME280;3695;53.330;9.876;2022-07-18T06:27:46;136435.72;;;18.67;100.00
7309;BME280;3695;53.330;9.876;2022-07-18T06:30:14;136634.94;;;18.71;100.00
7309;BME280;3695;53.330;9.876;2022-07-18T06:32:40;136955.28;;;18.79;100.00
7309;BME280;3695;53.330;9.876;2022-07-18T06:35:07;136960.91;;;18.81;100.00
7309;BME280;3695;53.330;9.876;2022-07-18T06:37:34;136602.13;;;18.67;100.00
7309;BME280;3695;53.330;9.876;2022-07-18T06:40:01;136484.50;;;18.67;100.00
7309;BME280;3695;53.330;9.876;2022-07-18T06:42:27;136585.69;;;18.75;100.00
7309;BME280;3695;53.330;9.876;2022-07-18T06:44:54;136517.97;;;18.74;100.00
7309;BME280;3695;53.330;9.876;2022-07-18T06:47:21;136584.56;;;18.74;100.00
7309;BME280;3695;53.330;9.876;2022-07-18T06:49:48;136903.34;;;18.85;100.00
7309;BME280;3695;53.330;9.876;2022-07-18T06:52:15;137586.78;;;19.06;100.00
7309;BME280;3695;53.330;9.876;2022-07-18T06:54:42;138018.31;;;19.20;100.00
7309;BME280;3695;53.330;9.876;2022-07-18T06:57:08;137601.81;;;19.06;100.00
7309;BME280;3695;53.330;9.876;2022-07-18T06:59:35;137625.25;;;19.09;100.00
7309;BME280;3695;53.330;9.876;2022-07-18T07:02:02;137903.72;;;19.16;100.00
7309;BME280;3695;53.330;9.876;2022-07-18T07:04:30;138418.59;;;19.28;100.00
7309;BME280;3695;53.330;9.876;2022-07-18T07:06:56;138692.06;;;19.31;100.00
7309;BME280;3695;53.330;9.876;2022-07-18T07:09:23;138910.53;;;19.33;100.00
7309;BME280;3695;53.330;9.876;2022-07-18T07:11:49;139187.75;;;19.40;100.00
7309;BME280;3695;53.330;9.876;2022-07-18T07:14:16;139588.13;;;19.51;100.00
7309;BME280;3695;53.330;9.876;2022-07-18T07:16:42;140089.47;;;19.64;100.00
7309;BME280;3695;53.330;9.876;2022-07-18T07:19:08;140273.38;;;19.69;100.00
7309;BME280;3695;53.330;9.876;2022-07-18T07:21:36;140328.94;;;19.75;100.00
7309;BME280;3695;53.330;9.876;2022-07-18T07:24:04;140432.25;;;19.80;100.00
7309;BME280;3695;53.330;9.876;2022-07-18T07:26:30;140956.59;;;19.95;100.00
7309;BME280;3695;53.330;9.876;2022-07-18T07:28:57;141195.44;;;20.02;100.00
7309;BME280;3695;53.330;9.876;2022-07-18T07:31:24;141567.03;;;20.11;100.00
7309;BME280;3695;53.330;9.876;2022-07-18T07:33:50;142126.31;;;20.25;100.00
7309;BME280;3695;53.330;9.876;2022-07-18T07:36:17;143014.63;;;20.51;100.00
7309;BME280;3695;53.330;9.876;2022-07-18T07:38:44;143977.13;;;20.75;100.00
7309;BME280;3695;53.330;9.876;2022-07-18T07:41:11;144339.97;;;20.78;100.00
7309;BME280;3695;53.330;9.876;2022-07-18T07:43:38;144723.19;;;20.86;100.00
7309;BME280;3695;53.330;9.876;2022-07-18T07:46:05;145178.25;;;20.95;100.00
7309;BME280;3695;53.330;9.876;2022-07-18T07:48:31;145519.03;;;20.98;100.00
7309;BME280;3695;53.330;9.876;2022-07-18T07:50:58;146246.03;;;21.16;100.00
7309;BME280;3695;53.330;9.876;2022-07-18T07:53:24;146719.47;;;21.34;100.00
7309;BME280;3695;53.330;9.876;2022-07-18T07:55:52;146358.16;;;21.22;100.00
7309;BME280;3695;53.330;9.876;2022-07-18T07:58:19;146753.97;;;21.24;100.00
7309;BME280;3695;53.330;9.876;2022-07-18T08:00:45;146916.13;;;21.31;100.00
7309;BME280;3695;53.330;9.876;2022-07-18T08:03:11;146396.91;;;21.23;100.00
7309;BME280;3695;53.330;9.876;2022-07-18T08:05:44;146079.72;;;21.17;100.00
7309;BME280;3695;53.330;9.876;2022-07-18T08:08:11;147341.69;;;21.55;100.00
7309;BME280;3695;53.330;9.876;2022-07-18T08:10:37;148194.59;;;21.78;100.00
7309;BME280;3695;53.330;9.876;2022-07-18T08:13:05;148158.00;;;21.82;100.00
7309;BME280;3695;53.330;9.876;2022-07-18T08:15:32;148713.44;;;21.85;100.00
7309;BME280;3695;53.330;9.876;2022-07-18T08:17:58;148296.88;;;21.69;100.00
7309;BME280;3695;53.330;9.876;2022-07-18T08:20:25;149480.28;;;21.92;100.00
7309;BME280;3695;53.330;9.876;2022-07-18T08:22:53;150166.13;;;22.09;100.00
7309;BME280;3695;53.330;9.876;2022-07-18T08:25:20;150845.94;;;22.19;100.00
7309;BME280;3695;53.330;9.876;2022-07-18T08:27:47;151397.91;;;22.27;100.00
7309;BME280;3695;53.330;9.876;2022-07-18T08:30:15;151320.75;;;22.27;100.00
7309;BME280;3695;53.330;9.876;2022-07-18T08:32:42;151619.19;;;22.27;100.00
7309;BME280;3695;53.330;9.876;2022-07-18T08:35:08;151352.47;;;22.20;100.00
7309;BME280;3695;53.330;9.876;2022-07-18T08:37:35;151407.88;;;22.13;100.00
7309;BME280;3695;53.330;9.876;2022-07-18T08:40:02;151786.31;;;22.25;100.00
7309;BME280;3695;53.330;9.876;2022-07-18T08:42:32;152405.97;;;22.47;100.00
7309;BME280;3695;53.330;9.876;2022-07-18T08:44:58;152108.88;;;22.38;100.00
7309;BME280;3695;53.330;9.876;2022-07-18T08:47:28;152750.94;;;22.61;100.00
7309;BME280;3695;53.330;9.876;2022-07-18T08:49:55;153630.91;;;22.78;100.00
7309;BME280;3695;53.330;9.876;2022-07-18T08:52:22;154127.22;;;22.89;100.00
7309;BME280;3695;53.330;9.876;2022-07-18T08:54:49;153814.75;;;22.77;100.00
7309;BME280;3695;53.330;9.876;2022-07-18T08:57:16;153388.72;;;22.66;100.00
7309;BME280;3695;53.330;9.876;2022-07-18T08:59:43;153551.56;;;22.71;100.00
7309;BME280;3695;53.330;9.876;2022-07-18T09:02:09;154042.63;;;22.85;100.00
7309;BME280;3695;53.330;9.876;2022-07-18T09:04:38;153891.13;;;22.85;100.00
7309;BME280;3695;53.330;9.876;2022-07-18T09:07:06;154464.19;;;23.04;100.00
7309;BME280;3695;53.330;9.876;2022-07-18T09:09:34;154498.59;;;23.06;100.00
7309;BME280;3695;53.330;9.876;2022-07-18T09:12:03;155064.00;;;23.23;100.00
7309;BME280;3695;53.330;9.876;2022-07-18T09:14:35;155095.41;;;23.21;100.00
7309;BME280;3695;53.330;9.876;2022-07-18T09:17:06;155545.22;;;23.36;100.00
7309;BME280;3695;53.330;9.876;2022-07-18T09:19:33;155876.47;;;23.43;100.00
7309;BME280;3695;53.330;9.876;2022-07-18T09:22:18;155706.88;;;23.36;100.00
7309;BME280;3695;53.330;9.876;2022-07-18T09:24:57;155698.19;;;23.37;100.00
7309;BME280;3695;53.330;9.876;2022-07-18T09:27:25;156395.22;;;23.59;100.00
7309;BME280;3695;53.330;9.876;2022-07-18T09:30:20;156640.06;;;23.64;100.00
7309;BME280;3695;53.330;9.876;2022-07-18T09:32:50;156855.22;;;23.63;100.00
7309;BME280;3695;53.330;9.876;2022-07-18T09:35:20;156319.91;;;23.45;100.00
7309;BME280;3695;53.330;9.876;2022-07-18T09:38:03;156739.06;;;23.55;100.00
7309;BME280;3695;53.330;9.876;2022-07-18T09:40:32;157286.84;;;23.69;100.00
7309;BME280;3695;53.330;9.876;2022-07-18T09:43:00;157222.41;;;23.68;100.00
7309;BME280;3695;53.330;9.876;2022-07-18T09:45:30;157660.03;;;23.85;100.00
7309;BME280;3695;53.330;9.876;2022-07-18T09:47:58;158023.53;;;23.89;100.00
7309;BME280;3695;53.330;9.876;2022-07-18T09:50:30;158884.75;;;24.15;100.00
7309;BME280;3695;53.330;9.876;2022-07-18T09:53:23;158753.06;;;24.12;100.00
7309;BME280;3695;53.330;9.876;2022-07-18T09:55:52;159755.38;;;24.34;100.00
7309;BME280;3695;53.330;9.876;2022-07-18T09:58:20;159802.66;;;24.37;100.00
7309;BME280;3695;53.330;9.876;2022-07-18T10:00:48;160119.44;;;24.61;100.00
7309;BME280;3695;53.330;9.876;2022-07-18T10:03:16;159356.00;;;24.17;100.00
7309;BME280;3695;53.330;9.876;2022-07-18T10:05:45;158926.66;;;24.10;100.00
7309;BME280;3695;53.330;9.876;2022-07-18T10:08:15;158806.66;;;24.05;100.00
7309;BME280;3695;53.330;9.876;2022-07-18T10:10:44;159838.28;;;24.42;100.00
7309;BME280;3695;53.330;9.876;2022-07-18T10:13:11;160135.19;;;24.67;100.00
7309;BME280;3695;53.330;9.876;2022-07-18T10:15:39;160129.94;;;24.65;100.00
7309;BME280;3695;53.330;9.876;2022-07-18T10:18:08;160149.63;;;24.72;100.00
7309;BME280;3695;53.330;9.876;2022-07-18T10:20:37;160106.25;;;24.56;100.00
7309;BME280;3695;53.330;9.876;2022-07-18T10:23:09;160145.69;;;24.71;100.00
7309;BME280;3695;53.330;9.876;2022-07-18T10:25:37;159508.81;;;24.35;100.00
7309;BME280;3695;53.330;9.876;2022-07-18T10:28:07;159175.69;;;24.25;100.00
7309;BME280;3695;53.330;9.876;2022-07-18T10:30:41;159584.97;;;24.41;100.00
7309;BME280;3695;53.330;9.876;2022-07-18T10:33:37;159096.16;;;24.21;100.00
7309;BME280;3695;53.330;9.876;2022-07-18T10:36:06;160114.13;;;24.59;100.00
7309;BME280;3695;53.330;9.876;2022-07-18T10:38:33;160135.19;;;24.67;100.00
7309;BME280;3695;53.330;9.876;2022-07-18T10:41:08;160166.69;;;24.79;100.00
7309;BME280;3695;53.330;9.876;2022-07-18T10:43:38;160179.81;;;24.84;100.00
7309;BME280;3695;53.330;9.876;2022-07-18T10:46:06;160305.97;;;25.33;100.00
7309;BME280;3695;53.330;9.876;2022-07-18T10:48:48;160325.69;;;25.40;100.00
7309;BME280;3695;53.330;9.876;2022-07-18T10:51:15;160429.53;;;25.81;100.00
7309;BME280;3695;53.330;9.876;2022-07-18T10:53:58;160394.09;;;25.67;100.00
7309;BME280;3695;53.330;9.876;2022-07-18T10:57:04;160373.00;;;25.59;100.00
7309;BME280;3695;53.330;9.876;2022-07-18T10:59:33;160348.00;;;25.49;100.00
7309;BME280;3695;53.330;9.876;2022-07-18T11:02:04;160320.44;;;25.38;100.00
7309;BME280;3695;53.330;9.876;2022-07-18T11:04:34;160305.97;;;25.33;100.00
7309;BME280;3695;53.330;9.876;2022-07-18T11:07:09;160321.75;;;25.39;100.00
7309;BME280;3695;53.330;9.876;2022-07-18T11:09:37;160311.22;;;25.35;100.00
7309;BME280;3695;53.330;9.876;2022-07-18T11:12:17;160294.16;;;25.28;100.00
7309;BME280;3695;53.330;9.876;2022-07-18T11:15:07;160342.75;;;25.47;100.00
7309;BME280;3695;53.330;9.876;2022-07-18T11:17:56;160390.09;;;25.65;100.00
7309;BME280;3695;53.330;9.876;2022-07-18T11:20:29;160542.59;;;26.24;100.00
7309;BME280;3695;53.330;9.876;2022-07-18T11:22:56;160508.41;;;26.11;100.00
7309;BME280;3695;53.330;9.876;2022-07-18T11:25:25;160547.84;;;26.26;100.00
7309;BME280;3695;53.330;9.876;2022-07-18T11:27:52;160580.75;;;26.39;100.00
7309;BME280;3695;53.330;9.876;2022-07-18T11:30:21;160603.06;;;26.48;100.00
7309;BME280;3695;53.330;9.876;2022-07-18T11:32:48;160660.94;;;26.70;100.00
7309;BME280;3695;53.330;9.876;2022-07-18T11:35:16;160634.66;;;26.60;100.00
7309;BME280;3695;53.330;9.876;2022-07-18T11:37:46;160718.78;;;26.92;100.00
7309;BME280;3695;53.330;9.876;2022-07-18T11:40:14;160716.16;;;26.91;100.00
7309;BME280;3695;53.330;9.876;2022-07-18T11:42:41;160743.88;;;27.02;100.00
7309;BME280;3695;53.330;9.876;2022-07-18T11:45:10;160742.56;;;27.02;100.00
7309;BME280;3695;53.330;9.876;2022-07-18T11:47:39;160771.47;;;27.13;100.00
7309;BME280;3695;53.330;9.876;2022-07-18T11:50:07;160825.38;;;27.34;100.00
7309;BME280;3695;53.330;9.876;2022-07-18T11:52:33;160770.16;;;27.12;100.00
7309;BME280;3695;53.330;9.876;2022-07-18T11:55:00;160792.50;;;27.21;100.00
7309;BME280;3695;53.330;9.876;2022-07-18T11:57:30;160833.25;;;27.37;100.00
7309;BME280;3695;53.330;9.876;2022-07-18T11:59:58;160788.56;;;27.19;100.00
7309;BME280;3695;53.330;9.876;2022-07-18T12:05:33;160835.91;;;27.38;100.00
7309;BME280;3695;53.330;9.876;2022-07-18T12:08:00;160868.81;;;27.50;100.00
7309;BME280;3695;53.330;9.876;2022-07-18T12:10:27;160922.78;;;27.71;100.00
7309;BME280;3695;53.330;9.876;2022-07-18T12:12:53;160931.97;;;27.75;100.00
7309;BME280;3695;53.330;9.876;2022-07-18T12:15:20;160875.38;;;27.53;100.00
7309;BME280;3695;53.330;9.876;2022-07-18T12:17:48;160918.84;;;27.70;100.00
7309;BME280;3695;53.330;9.876;2022-07-18T12:20:18;160926.72;;;27.73;100.00
7309;BME280;3695;53.330;9.876;2022-07-18T12:23:06;161014.88;;;28.07;100.00
7309;BME280;3695;53.330;9.876;2022-07-18T12:25:36;161014.88;;;28.07;100.00
7309;BME280;3695;53.330;9.876;2022-07-18T12:28:12;161108.38;;;28.43;100.00
7309;BME280;3695;53.330;9.876;2022-07-18T12:30:38;161186.00;;;28.73;100.00
7309;BME280;3695;53.330;9.876;2022-07-18T12:33:08;161124.16;;;28.49;96.21
7309;BME280;3695;53.330;9.876;2022-07-18T12:35:35;161133.38;;;28.52;98.59
7309;BME280;3695;53.330;9.876;2022-07-18T12:38:06;161137.31;;;28.54;95.16
7309;BME280;3695;53.330;9.876;2022-07-18T12:40:41;161058.34;;;28.24;95.66
7309;BME280;3695;53.330;9.876;2022-07-18T12:43:11;161158.38;;;28.62;96.53
7309;BME280;3695;53.330;9.876;2022-07-18T12:45:38;161158.38;;;28.62;94.75
7309;BME280;3695;53.330;9.876;2022-07-18T12:48:07;161178.09;;;28.70;96.34
7309;BME280;3695;53.330;9.876;2022-07-18T12:50:34;161154.44;;;28.61;90.63
7309;BME280;3695;53.330;9.876;2022-07-18T12:53:01;161233.47;;;28.91;99.96
7309;BME280;3695;53.330;9.876;2022-07-18T12:55:29;161139.97;;;28.55;92.33
7309;BME280;3695;53.330;9.876;2022-07-18T12:57:55;161253.22;;;28.99;95.50
7309;BME280;3695;53.330;9.876;2022-07-18T13:00:22;161167.59;;;28.66;87.93
7309;BME280;3695;53.330;9.876;2022-07-18T13:02:49;161245.31;;;28.96;90.59
7309;BME280;3695;53.330;9.876;2022-07-18T13:05:15;161147.84;;;28.58;91.07
7309;BME280;3695;53.330;9.876;2022-07-18T13:07:41;161221.63;;;28.87;90.53
7309;BME280;3695;53.330;9.876;2022-07-18T13:10:09;161155.75;;;28.61;87.61
7309;BME280;3695;53.330;9.876;2022-07-18T13:12:37;161226.88;;;28.89;89.40